sensor_id;sensor_type;location;lat;lon;timestamp;P1;durP1;ratioP1;P2;durP2;ratioP2
31310;SDS011;17937;51.508;7.534;2022-11-14T00:00:25;13.65;;;8.75;;
31310;SDS011;17937;51.508;7.534;2022-11-14T00:02:51;16.35;;;9.35;;
31310;SDS011;17937;51.508;7.534;2022-11-14T00:05:17;14.27;;;8.73;;
31310;SDS011;17937;51.508;7.534;2022-11-14T00:07:43;12.13;;;8.32;;
31310;SDS011;17937;51.508;7.534;2022-11-14T00:10:11;13.88;;;9.10;;
31310;SDS011;17937;51.508;7.534;2022-11-14T00:12:37;16.90;;;8.73;;
31310;SDS011;17937;51.508;7.534;2022-11-14T00:15:03;16.40;;;9.13;;
31310;SDS011;17937;51.508;7.534;2022-11-14T00:17:29;14.57;;;8.77;;
31310;SDS011;17937;51.508;7.534;2022-11-14T00:19:54;14.27;;;8.90;;
31310;SDS011;17937;51.508;7.534;2022-11-14T00:22:20;10.77;;;8.52;;
31310;SDS011;17937;51.508;7.534;2022-11-14T00:24:45;13.57;;;9.18;;
31310;SDS011;17937;51.508;7.534;2022-11-14T00:27:11;17.70;;;8.88;;
31310;SDS011;17937;51.508;7.534;2022-11-14T00:29:36;12.88;;;8.80;;
31310;SDS011;17937;51.508;7.534;2022-11-14T00:32:02;14.57;;;8.60;;
31310;SDS011;17937;51.508;7.534;2022-11-14T00:34:28;17.10;;;10.18;;
31310;SDS011;17937;51.508;7.534;2022-11-14T00:36:54;15.30;;;7.82;;
31310;SDS011;17937;51.508;7.534;2022-11-14T00:39:19;10.48;;;7.63;;
31310;SDS011;17937;51.508;7.534;2022-11-14T00:41:45;14.68;;;8.65;;
31310;SDS011;17937;51.508;7.534;2022-11-14T00:44:10;15.50;;;8.45;;
31310;SDS011;17937;51.508;7.534;2022-11-14T00:46:36;16.40;;;8.38;;
31310;SDS011;17937;51.508;7.534;2022-11-14T00:49:02;13.85;;;8.98;;
31310;SDS011;17937;51.508;7.534;2022-11-14T00:51:28;12.75;;;8.48;;
31310;SDS011;17937;51.508;7.534;2022-11-14T00:53:54;13.05;;;8.30;;
31310;SDS011;17937;51.508;7.534;2022-11-14T00:56:19;13.20;;;9.30;;
31310;SDS011;17937;51.508;7.534;2022-11-14T00:58:45;15.85;;;9.23;;
31310;SDS011;17937;51.508;7.534;2022-11-14T01:01:10;15.32;;;8.35;;
31310;SDS011;17937;51.508;7.534;2022-11-14T01:03:36;14.95;;;8.60;;
31310;SDS011;17937;51.508;7.534;2022-11-14T01:06:03;12.07;;;7.85;;
31310;SDS011;17937;51.508;7.534;2022-11-14T01:08:30;13.30;;;8.18;;
31310;SDS011;17937;51.508;7.534;2022-11-14T01:10:56;13.55;;;8.48;;
31310;SDS011;17937;51.508;7.534;2022-11-14T01:13:21;12.98;;;8.07;;
31310;SDS011;17937;51.508;7.534;2022-11-14T01:15:47;16.30;;;7.63;;
31310;SDS011;17937;51.508;7.534;2022-11-14T01:18:14;14.15;;;8.85;;
31310;SDS011;17937;51.508;7.534;2022-11-14T01:20:43;14.30;;;8.93;;
31310;SDS011;17937;51.508;7.534;2022-11-14T01:23:10;13.85;;;8.93;;
31310;SDS011;17937;51.508;7.534;2022-11-14T01:25:37;15.38;;;9.25;;
31310;SDS011;17937;51.508;7.534;2022-11-14T01:28:04;11.90;;;8.13;;
31310;SDS011;17937;51.508;7.534;2022-11-14T01:30:32;15.07;;;8.75;;
31310;SDS011;17937;51.508;7.534;2022-11-14T01:32:57;13.35;;;9.27;;
31310;SDS011;17937;51.508;7.534;2022-11-14T01:35:23;23.77;;;10.05;;
31310;SDS011;17937;51.508;7.534;2022-11-14T01:37:48;15.82;;;9.57;;
31310;SDS011;17937;51.508;7.534;2022-11-14T01:40:14;18.35;;;10.10;;
31310;SDS011;17937;51.508;7.534;2022-11-14T01:42:40;16.13;;;9.60;;
31310;SDS011;17937;51.508;7.534;2022-11-14T01:48:13;16.70;;;9.80;;
31310;SDS011;17937;51.508;7.534;2022-11-14T01:50:45;17.08;;;10.25;;
31310;SDS011;17937;51.508;7.534;2022-11-14T01:53:14;17.42;;;9.73;;
31310;SDS011;17937;51.508;7.534;2022-11-14T01:55:40;17.60;;;9.65;;
31310;SDS011;17937;51.508;7.534;2022-11-14T01:58:05;17.42;;;10.25;;
31310;SDS011;17937;51.508;7.534;2022-11-14T02:00:31;19.30;;;9.88;;
31310;SDS011;17937;51.508;7.534;2022-11-14T02:02:57;17.92;;;10.38;;
31310;SDS011;17937;51.508;7.534;2022-11-14T02:05:23;20.92;;;11.02;;
31310;SDS011;17937;51.508;7.534;2022-11-14T02:07:49;18.45;;;10.65;;
31310;SDS011;17937;51.508;7.534;2022-11-14T02:10:17;17.17;;;10.20;;
31310;SDS011;17937;51.508;7.534;2022-11-14T02:12:45;18.70;;;10.93;;
31310;SDS011;17937;51.508;7.534;2022-11-14T02:15:12;19.05;;;10.80;;
31310;SDS011;17937;51.508;7.534;2022-11-14T02:17:39;18.75;;;10.18;;
31310;SDS011;17937;51.508;7.534;2022-11-14T02:22:35;14.93;;;9.98;;
31310;SDS011;17937;51.508;7.534;2022-11-14T02:25:05;15.48;;;10.43;;
31310;SDS011;17937;51.508;7.534;2022-11-14T02:27:32;18.73;;;10.48;;
31310;SDS011;17937;51.508;7.534;2022-11-14T02:30:05;15.38;;;9.88;;
31310;SDS011;17937;51.508;7.534;2022-11-14T02:32:34;20.92;;;10.43;;
31310;SDS011;17937;51.508;7.534;2022-11-14T02:34:59;16.58;;;9.15;;
31310;SDS011;17937;51.508;7.534;2022-11-14T02:37:25;18.38;;;10.77;;
31310;SDS011;17937;51.508;7.534;2022-11-14T02:39:50;16.30;;;9.55;;
31310;SDS011;17937;51.508;7.534;2022-11-14T02:42:16;16.63;;;9.32;;
31310;SDS011;17937;51.508;7.534;2022-11-14T02:44:41;16.60;;;8.95;;
31310;SDS011;17937;51.508;7.534;2022-11-14T02:47:07;19.50;;;9.95;;
31310;SDS011;17937;51.508;7.534;2022-11-14T02:49:32;12.70;;;8.80;;
31310;SDS011;17937;51.508;7.534;2022-11-14T02:51:58;14.52;;;8.73;;
31310;SDS011;17937;51.508;7.534;2022-11-14T02:54:23;15.68;;;9.02;;
31310;SDS011;17937;51.508;7.534;2022-11-14T02:56:49;12.95;;;7.80;;
31310;SDS011;17937;51.508;7.534;2022-11-14T02:59:14;14.95;;;8.48;;
31310;SDS011;17937;51.508;7.534;2022-11-14T03:01:40;12.00;;;7.85;;
31310;SDS011;17937;51.508;7.534;2022-11-14T03:04:06;15.25;;;8.45;;
31310;SDS011;17937;51.508;7.534;2022-11-14T03:06:31;13.98;;;8.07;;
31310;SDS011;17937;51.508;7.534;2022-11-14T03:08:57;13.25;;;7.88;;
31310;SDS011;17937;51.508;7.534;2022-11-14T03:11:22;15.70;;;8.80;;
31310;SDS011;17937;51.508;7.534;2022-11-14T03:13:48;15.38;;;8.75;;
31310;SDS011;17937;51.508;7.534;2022-11-14T03:16:13;13.73;;;7.88;;
31310;SDS011;17937;51.508;7.534;2022-11-14T03:18:39;15.75;;;9.40;;
31310;SDS011;17937;51.508;7.534;2022-11-14T03:21:06;15.45;;;8.15;;
31310;SDS011;17937;51.508;7.534;2022-11-14T03:23:32;12.40;;;7.93;;
31310;SDS011;17937;51.508;7.534;2022-11-14T03:26:03;16.20;;;8.57;;
31310;SDS011;17937;51.508;7.534;2022-11-14T03:28:31;13.98;;;9.20;;
31310;SDS011;17937;51.508;7.534;2022-11-14T03:30:57;14.68;;;7.82;;
31310;SDS011;17937;51.508;7.534;2022-11-14T03:33:22;14.27;;;8.48;;
31310;SDS011;17937;51.508;7.534;2022-11-14T03:35:49;17.95;;;8.60;;
31310;SDS011;17937;51.508;7.534;2022-11-14T03:38:15;12.82;;;8.02;;
31310;SDS011;17937;51.508;7.534;2022-11-14T03:40:41;17.77;;;8.35;;
31310;SDS011;17937;51.508;7.534;2022-11-14T03:43:07;14.38;;;9.25;;
31310;SDS011;17937;51.508;7.534;2022-11-14T03:45:32;15.30;;;9.18;;
31310;SDS011;17937;51.508;7.534;2022-11-14T03:47:59;17.08;;;9.35;;
31310;SDS011;17937;51.508;7.534;2022-11-14T03:50:25;13.85;;;8.88;;
31310;SDS011;17937;51.508;7.534;2022-11-14T03:52:51;11.93;;;8.02;;
31310;SDS011;17937;51.508;7.534;2022-11-14T03:55:16;17.27;;;8.32;;
31310;SDS011;17937;51.508;7.534;2022-11-14T03:57:42;12.52;;;8.07;;
31310;SDS011;17937;51.508;7.534;2022-11-14T04:00:08;16.30;;;8.35;;
31310;SDS011;17937;51.508;7.534;2022-11-14T04:02:34;12.52;;;8.30;;
31310;SDS011;17937;51.508;7.534;2022-11-14T04:04:59;13.20;;;8.27;;
31310;SDS011;17937;51.508;7.534;2022-11-14T04:07:25;16.77;;;8.40;;
31310;SDS011;17937;51.508;7.534;2022-11-14T04:09:51;13.48;;;8.35;;
31310;SDS011;17937;51.508;7.534;2022-11-14T04:12:17;14.48;;;8.18;;
31310;SDS011;17937;51.508;7.534;2022-11-14T04:14:42;16.92;;;9.35;;
31310;SDS011;17937;51.508;7.534;2022-11-14T04:17:08;13.52;;;8.43;;
31310;SDS011;17937;51.508;7.534;2022-11-14T04:19:34;14.10;;;8.60;;
31310;SDS011;17937;51.508;7.534;2022-11-14T04:21:59;15.27;;;8.95;;
31310;SDS011;17937;51.508;7.534;2022-11-14T04:24:25;14.10;;;8.77;;
31310;SDS011;17937;51.508;7.534;2022-11-14T04:26:50;13.35;;;8.10;;
31310;SDS011;17937;51.508;7.534;2022-11-14T04:29:16;11.93;;;8.15;;
31310;SDS011;17937;51.508;7.534;2022-11-14T04:31:41;16.70;;;9.25;;
31310;SDS011;17937;51.508;7.534;2022-11-14T04:34:07;14.15;;;8.40;;
31310;SDS011;17937;51.508;7.534;2022-11-14T04:36:32;14.27;;;8.30;;
31310;SDS011;17937;51.508;7.534;2022-11-14T04:38:58;13.93;;;8.43;;
31310;SDS011;17937;51.508;7.534;2022-11-14T04:41:23;14.40;;;8.80;;
31310;SDS011;17937;51.508;7.534;2022-11-14T04:43:49;16.27;;;8.50;;
31310;SDS011;17937;51.508;7.534;2022-11-14T04:46:14;16.10;;;8.98;;
31310;SDS011;17937;51.508;7.534;2022-11-14T04:48:40;18.35;;;9.63;;
31310;SDS011;17937;51.508;7.534;2022-11-14T04:51:05;13.43;;;8.25;;
31310;SDS011;17937;51.508;7.534;2022-11-14T04:53:31;14.57;;;8.52;;
31310;SDS011;17937;51.508;7.534;2022-11-14T04:55:57;17.10;;;9.50;;
31310;SDS011;17937;51.508;7.534;2022-11-14T04:58:22;21.55;;;9.70;;
31310;SDS011;17937;51.508;7.534;2022-11-14T05:00:48;15.93;;;8.98;;
31310;SDS011;17937;51.508;7.534;2022-11-14T05:03:13;16.15;;;8.75;;
31310;SDS011;17937;51.508;7.534;2022-11-14T05:05:39;16.15;;;9.82;;
31310;SDS011;17937;51.508;7.534;2022-11-14T05:08:04;17.50;;;9.25;;
31310;SDS011;17937;51.508;7.534;2022-11-14T05:10:30;14.80;;;8.80;;
31310;SDS011;17937;51.508;7.534;2022-11-14T05:12:55;16.70;;;9.52;;
31310;SDS011;17937;51.508;7.534;2022-11-14T05:15:21;17.60;;;9.48;;
31310;SDS011;17937;51.508;7.534;2022-11-14T05:17:47;16.15;;;8.57;;
31310;SDS011;17937;51.508;7.534;2022-11-14T05:20:12;14.90;;;8.98;;
31310;SDS011;17937;51.508;7.534;2022-11-14T05:22:38;14.25;;;8.43;;
31310;SDS011;17937;51.508;7.534;2022-11-14T05:25:04;15.05;;;8.32;;
31310;SDS011;17937;51.508;7.534;2022-11-14T05:27:30;12.82;;;8.18;;
31310;SDS011;17937;51.508;7.534;2022-11-14T05:29:56;16.33;;;8.27;;
31310;SDS011;17937;51.508;7.534;2022-11-14T05:32:21;13.05;;;7.78;;
31310;SDS011;17937;51.508;7.534;2022-11-14T05:34:47;17.30;;;8.65;;
31310;SDS011;17937;51.508;7.534;2022-11-14T05:37:12;16.98;;;8.23;;
31310;SDS011;17937;51.508;7.534;2022-11-14T05:39:38;14.23;;;8.23;;
31310;SDS011;17937;51.508;7.534;2022-11-14T05:42:04;16.20;;;8.55;;
31310;SDS011;17937;51.508;7.534;2022-11-14T05:44:30;17.45;;;8.23;;
31310;SDS011;17937;51.508;7.534;2022-11-14T05:46:56;15.93;;;8.05;;
31310;SDS011;17937;51.508;7.534;2022-11-14T05:49:22;13.35;;;8.45;;
31310;SDS011;17937;51.508;7.534;2022-11-14T05:51:47;14.48;;;8.35;;
31310;SDS011;17937;51.508;7.534;2022-11-14T05:54:13;20.52;;;7.82;;
31310;SDS011;17937;51.508;7.534;2022-11-14T05:56:38;14.27;;;8.57;;
31310;SDS011;17937;51.508;7.534;2022-11-14T05:59:04;14.80;;;7.68;;
31310;SDS011;17937;51.508;7.534;2022-11-14T06:01:30;15.00;;;8.05;;
31310;SDS011;17937;51.508;7.534;2022-11-14T06:03:55;13.75;;;8.13;;
31310;SDS011;17937;51.508;7.534;2022-11-14T06:06:21;17.98;;;9.07;;
31310;SDS011;17937;51.508;7.534;2022-11-14T06:08:47;17.60;;;11.48;;
31310;SDS011;17937;51.508;7.534;2022-11-14T06:11:14;20.85;;;8.98;;
31310;SDS011;17937;51.508;7.534;2022-11-14T06:13:41;21.17;;;9.98;;
31310;SDS011;17937;51.508;7.534;2022-11-14T06:16:17;15.10;;;8.98;;
31310;SDS011;17937;51.508;7.534;2022-11-14T06:18:43;15.45;;;8.45;;
31310;SDS011;17937;51.508;7.534;2022-11-14T06:26:12;18.83;;;8.93;;
31310;SDS011;17937;51.508;7.534;2022-11-14T06:28:49;15.88;;;8.07;;
31310;SDS011;17937;51.508;7.534;2022-11-14T06:31:16;16.50;;;9.30;;
31310;SDS011;17937;51.508;7.534;2022-11-14T06:33:43;16.50;;;8.80;;
31310;SDS011;17937;51.508;7.534;2022-11-14T06:36:10;15.35;;;9.35;;
31310;SDS011;17937;51.508;7.534;2022-11-14T06:38:36;17.38;;;9.27;;
31310;SDS011;17937;51.508;7.534;2022-11-14T06:41:07;17.10;;;9.43;;
31310;SDS011;17937;51.508;7.534;2022-11-14T06:43:33;16.45;;;9.38;;
31310;SDS011;17937;51.508;7.534;2022-11-14T06:46:00;17.40;;;9.52;;
31310;SDS011;17937;51.508;7.534;2022-11-14T06:48:26;16.65;;;9.73;;
31310;SDS011;17937;51.508;7.534;2022-11-14T06:50:52;20.80;;;10.57;;
31310;SDS011;17937;51.508;7.534;2022-11-14T06:53:19;18.10;;;9.90;;
31310;SDS011;17937;51.508;7.534;2022-11-14T06:55:55;18.15;;;10.02;;
31310;SDS011;17937;51.508;7.534;2022-11-14T06:58:32;22.80;;;10.23;;
31310;SDS011;17937;51.508;7.534;2022-11-14T07:01:03;18.65;;;10.05;;
31310;SDS011;17937;51.508;7.534;2022-11-14T07:03:31;20.85;;;10.85;;
31310;SDS011;17937;51.508;7.534;2022-11-14T07:05:57;20.17;;;10.48;;
31310;SDS011;17937;51.508;7.534;2022-11-14T07:08:24;17.80;;;10.10;;
31310;SDS011;17937;51.508;7.534;2022-11-14T07:10:49;21.75;;;10.10;;
31310;SDS011;17937;51.508;7.534;2022-11-14T07:13:15;16.85;;;10.15;;
31310;SDS011;17937;51.508;7.534;2022-11-14T07:15:48;20.17;;;11.35;;
31310;SDS011;17937;51.508;7.534;2022-11-14T07:18:14;18.48;;;10.43;;
31310;SDS011;17937;51.508;7.534;2022-11-14T07:20:40;25.48;;;11.10;;
31310;SDS011;17937;51.508;7.534;2022-11-14T07:23:06;25.40;;;11.35;;
31310;SDS011;17937;51.508;7.534;2022-11-14T07:25:31;17.67;;;10.13;;
31310;SDS011;17937;51.508;7.534;2022-11-14T07:27:57;22.63;;;11.00;;
31310;SDS011;17937;51.508;7.534;2022-11-14T07:30:22;20.08;;;10.85;;
31310;SDS011;17937;51.508;7.534;2022-11-14T07:32:53;20.27;;;10.98;;
31310;SDS011;17937;51.508;7.534;2022-11-14T07:35:22;23.15;;;11.85;;
31310;SDS011;17937;51.508;7.534;2022-11-14T07:37:49;22.15;;;11.00;;
31310;SDS011;17937;51.508;7.534;2022-11-14T07:40:15;24.90;;;11.85;;
31310;SDS011;17937;51.508;7.534;2022-11-14T07:42:41;19.02;;;10.95;;
31310;SDS011;17937;51.508;7.534;2022-11-14T07:45:07;24.80;;;11.68;;
31310;SDS011;17937;51.508;7.534;2022-11-14T07:47:33;22.60;;;10.93;;
31310;SDS011;17937;51.508;7.534;2022-11-14T07:49:58;21.65;;;10.88;;
31310;SDS011;17937;51.508;7.534;2022-11-14T07:52:24;20.58;;;11.70;;
31310;SDS011;17937;51.508;7.534;2022-11-14T07:54:50;20.13;;;11.13;;
31310;SDS011;17937;51.508;7.534;2022-11-14T07:57:15;19.75;;;10.45;;
31310;SDS011;17937;51.508;7.534;2022-11-14T07:59:41;18.23;;;10.75;;
31310;SDS011;17937;51.508;7.534;2022-11-14T08:02:10;21.58;;;10.93;;
31310;SDS011;17937;51.508;7.534;2022-11-14T08:04:38;19.23;;;10.05;;
31310;SDS011;17937;51.508;7.534;2022-11-14T08:07:03;22.27;;;10.13;;
31310;SDS011;17937;51.508;7.534;2022-11-14T08:09:29;16.95;;;9.85;;
31310;SDS011;17937;51.508;7.534;2022-11-14T08:11:55;20.77;;;9.75;;
31310;SDS011;17937;51.508;7.534;2022-11-14T08:14:20;20.33;;;10.32;;
31310;SDS011;17937;51.508;7.534;2022-11-14T08:16:46;17.58;;;9.57;;
31310;SDS011;17937;51.508;7.534;2022-11-14T08:19:11;17.50;;;10.75;;
31310;SDS011;17937;51.508;7.534;2022-11-14T08:21:37;16.02;;;9.45;;
31310;SDS011;17937;51.508;7.534;2022-11-14T08:24:03;17.92;;;10.38;;
31310;SDS011;17937;51.508;7.534;2022-11-14T08:26:28;20.50;;;11.07;;
31310;SDS011;17937;51.508;7.534;2022-11-14T08:28:54;16.70;;;10.43;;
31310;SDS011;17937;51.508;7.534;2022-11-14T08:31:20;17.33;;;10.93;;
31310;SDS011;17937;51.508;7.534;2022-11-14T08:33:46;14.63;;;10.25;;
31310;SDS011;17937;51.508;7.534;2022-11-14T08:36:14;18.92;;;11.40;;
31310;SDS011;17937;51.508;7.534;2022-11-14T08:38:39;18.67;;;11.00;;
31310;SDS011;17937;51.508;7.534;2022-11-14T08:41:05;18.42;;;11.18;;
31310;SDS011;17937;51.508;7.534;2022-11-14T08:43:31;18.95;;;12.00;;
31310;SDS011;17937;51.508;7.534;2022-11-14T08:45:57;20.50;;;11.13;;
31310;SDS011;17937;51.508;7.534;2022-11-14T08:48:23;19.48;;;11.13;;
31310;SDS011;17937;51.508;7.534;2022-11-14T08:50:49;22.58;;;11.48;;
31310;SDS011;17937;51.508;7.534;2022-11-14T08:53:14;20.65;;;10.85;;
31310;SDS011;17937;51.508;7.534;2022-11-14T08:55:43;15.25;;;10.80;;
31310;SDS011;17937;51.508;7.534;2022-11-14T08:58:10;18.17;;;11.50;;
31310;SDS011;17937;51.508;7.534;2022-11-14T09:00:35;14.23;;;10.10;;
31310;SDS011;17937;51.508;7.534;2022-11-14T09:03:06;17.58;;;11.05;;
31310;SDS011;17937;51.508;7.534;2022-11-14T09:05:38;13.93;;;10.20;;
31310;SDS011;17937;51.508;7.534;2022-11-14T09:08:03;21.60;;;11.55;;
31310;SDS011;17937;51.508;7.534;2022-11-14T09:10:29;17.00;;;11.43;;
31310;SDS011;17937;51.508;7.534;2022-11-14T09:12:58;15.55;;;11.65;;
31310;SDS011;17937;51.508;7.534;2022-11-14T09:15:28;15.15;;;11.07;;
31310;SDS011;17937;51.508;7.534;2022-11-14T09:17:54;16.10;;;10.98;;
31310;SDS011;17937;51.508;7.534;2022-11-14T09:20:24;18.73;;;11.68;;
31310;SDS011;17937;51.508;7.534;2022-11-14T09:22:50;17.80;;;11.70;;
31310;SDS011;17937;51.508;7.534;2022-11-14T09:25:19;19.33;;;11.60;;
31310;SDS011;17937;51.508;7.534;2022-11-14T09:27:46;17.58;;;11.57;;
31310;SDS011;17937;51.508;7.534;2022-11-14T09:30:12;18.05;;;11.55;;
31310;SDS011;17937;51.508;7.534;2022-11-14T09:32:38;20.83;;;11.10;;
31310;SDS011;17937;51.508;7.534;2022-11-14T09:35:04;18.67;;;11.95;;
31310;SDS011;17937;51.508;7.534;2022-11-14T09:37:30;17.48;;;11.57;;
31310;SDS011;17937;51.508;7.534;2022-11-14T09:39:55;17.40;;;11.52;;
31310;SDS011;17937;51.508;7.534;2022-11-14T09:44:53;19.75;;;11.23;;
31310;SDS011;17937;51.508;7.534;2022-11-14T09:47:29;18.25;;;10.80;;
31310;SDS011;17937;51.508;7.534;2022-11-14T09:50:13;16.98;;;11.65;;
31310;SDS011;17937;51.508;7.534;2022-11-14T09:52:48;19.73;;;12.52;;
31310;SDS011;17937;51.508;7.534;2022-11-14T09:55:37;19.08;;;12.02;;
31310;SDS011;17937;51.508;7.534;2022-11-14T09:58:03;22.15;;;12.40;;
31310;SDS011;17937;51.508;7.534;2022-11-14T10:00:37;18.45;;;12.65;;
31310;SDS011;17937;51.508;7.534;2022-11-14T10:05:44;24.23;;;13.95;;
31310;SDS011;17937;51.508;7.534;2022-11-14T10:11:07;23.38;;;14.77;;
31310;SDS011;17937;51.508;7.534;2022-11-14T10:16:06;24.25;;;15.40;;
31310;SDS011;17937;51.508;7.534;2022-11-14T10:21:42;28.88;;;16.17;;
31310;SDS011;17937;51.508;7.534;2022-11-14T10:24:38;28.17;;;15.98;;
31310;SDS011;17937;51.508;7.534;2022-11-14T10:27:35;26.73;;;15.18;;
31310;SDS011;17937;51.508;7.534;2022-11-14T10:30:14;24.88;;;14.77;;
31310;SDS011;17937;51.508;7.534;2022-11-14T10:35:16;29.83;;;16.20;;
31310;SDS011;17937;51.508;7.534;2022-11-14T10:40:43;27.85;;;14.25;;
31310;SDS011;17937;51.508;7.534;2022-11-14T10:45:47;26.42;;;14.60;;
31310;SDS011;17937;51.508;7.534;2022-11-14T10:50:54;25.23;;;14.85;;
31310;SDS011;17937;51.508;7.534;2022-11-14T10:53:36;26.98;;;15.32;;
31310;SDS011;17937;51.508;7.534;2022-11-14T10:56:07;24.88;;;13.80;;
31310;SDS011;17937;51.508;7.534;2022-11-14T10:58:35;23.30;;;14.65;;
31310;SDS011;17937;51.508;7.534;2022-11-14T11:04:10;22.30;;;14.15;;
31310;SDS011;17937;51.508;7.534;2022-11-14T11:06:57;20.52;;;13.18;;
31310;SDS011;17937;51.508;7.534;2022-11-14T11:09:35;22.50;;;13.00;;
31310;SDS011;17937;51.508;7.534;2022-11-14T11:12:41;29.50;;;14.00;;
31310;SDS011;17937;51.508;7.534;2022-11-14T11:15:20;25.30;;;14.07;;
31310;SDS011;17937;51.508;7.534;2022-11-14T11:17:55;22.58;;;13.48;;
31310;SDS011;17937;51.508;7.534;2022-11-14T11:20:32;23.88;;;12.98;;
31310;SDS011;17937;51.508;7.534;2022-11-14T11:23:04;24.98;;;13.20;;
31310;SDS011;17937;51.508;7.534;2022-11-14T11:25:38;21.17;;;12.00;;
31310;SDS011;17937;51.508;7.534;2022-11-14T11:28:11;21.35;;;12.32;;
31310;SDS011;17937;51.508;7.534;2022-11-14T11:30:39;18.33;;;11.90;;
31310;SDS011;17937;51.508;7.534;2022-11-14T11:33:25;17.90;;;11.13;;
31310;SDS011;17937;51.508;7.534;2022-11-14T11:35:55;19.13;;;12.25;;
31310;SDS011;17937;51.508;7.534;2022-11-14T11:38:27;20.88;;;11.52;;
31310;SDS011;17937;51.508;7.534;2022-11-14T11:40:59;17.17;;;11.65;;
31310;SDS011;17937;51.508;7.534;2022-11-14T11:43:42;18.70;;;11.43;;
31310;SDS011;17937;51.508;7.534;2022-11-14T11:49:10;21.38;;;11.43;;
31310;SDS011;17937;51.508;7.534;2022-11-14T11:51:43;17.50;;;11.63;;
31310;SDS011;17937;51.508;7.534;2022-11-14T11:54:15;20.27;;;11.48;;
31310;SDS011;17937;51.508;7.534;2022-11-14T11:56:50;17.73;;;11.15;;
31310;SDS011;17937;51.508;7.534;2022-11-14T12:02:02;17.05;;;10.77;;
31310;SDS011;17937;51.508;7.534;2022-11-14T12:04:43;32.40;;;12.20;;
31310;SDS011;17937;51.508;7.534;2022-11-14T12:07:11;18.10;;;11.00;;
31310;SDS011;17937;51.508;7.534;2022-11-14T12:09:40;18.83;;;12.43;;
31310;SDS011;17937;51.508;7.534;2022-11-14T12:12:19;20.60;;;11.02;;
31310;SDS011;17937;51.508;7.534;2022-11-14T12:28:51;16.10;;;10.35;;
31310;SDS011;17937;51.508;7.534;2022-11-14T12:31:39;13.25;;;8.80;;
31310;SDS011;17937;51.508;7.534;2022-11-14T12:34:11;16.77;;;9.50;;
31310;SDS011;17937;51.508;7.534;2022-11-14T12:36:46;17.58;;;9.73;;
31310;SDS011;17937;51.508;7.534;2022-11-14T12:39:21;17.35;;;10.13;;
31310;SDS011;17937;51.508;7.534;2022-11-14T12:41:49;14.90;;;9.02;;
31310;SDS011;17937;51.508;7.534;2022-11-14T13:06:06;17.10;;;9.05;;
31310;SDS011;17937;51.508;7.534;2022-11-14T13:11:39;12.90;;;8.65;;
31310;SDS011;17937;51.508;7.534;2022-11-14T13:14:25;17.00;;;9.80;;
31310;SDS011;17937;51.508;7.534;2022-11-14T13:20:45;17.88;;;8.88;;
31310;SDS011;17937;51.508;7.534;2022-11-14T13:23:04;12.13;;;8.55;;
31310;SDS011;17937;51.508;7.534;2022-11-14T13:25:30;14.30;;;9.25;;
31310;SDS011;17937;51.508;7.534;2022-11-14T13:27:55;26.23;;;12.73;;
31310;SDS011;17937;51.508;7.534;2022-11-14T13:33:49;21.20;;;12.10;;
31310;SDS011;17937;51.508;7.534;2022-11-14T13:39:22;13.73;;;9.45;;
31310;SDS011;17937;51.508;7.534;2022-11-14T13:42:02;17.30;;;10.20;;
31310;SDS011;17937;51.508;7.534;2022-11-14T13:52:20;18.95;;;9.98;;
31310;SDS011;17937;51.508;7.534;2022-11-14T13:54:48;16.95;;;10.40;;
31310;SDS011;17937;51.508;7.534;2022-11-14T14:05:24;12.98;;;9.02;;
31310;SDS011;17937;51.508;7.534;2022-11-14T14:13:55;15.75;;;8.88;;
31310;SDS011;17937;51.508;7.534;2022-11-14T14:16:38;17.98;;;9.05;;
31310;SDS011;17937;51.508;7.534;2022-11-14T14:22:40;14.77;;;8.55;;
31310;SDS011;17937;51.508;7.534;2022-11-14T14:25:25;15.38;;;8.25;;
31310;SDS011;17937;51.508;7.534;2022-11-14T14:28:05;13.43;;;8.60;;
31310;SDS011;17937;51.508;7.534;2022-11-14T14:31:01;15.02;;;8.48;;
31310;SDS011;17937;51.508;7.534;2022-11-14T14:33:42;16.20;;;8.68;;
31310;SDS011;17937;51.508;7.534;2022-11-14T14:36:19;15.85;;;8.80;;
31310;SDS011;17937;51.508;7.534;2022-11-14T14:41:39;17.02;;;9.43;;
31310;SDS011;17937;51.508;7.534;2022-11-14T14:44:05;17.30;;;8.80;;
31310;SDS011;17937;51.508;7.534;2022-11-14T14:46:41;14.07;;;8.70;;
31310;SDS011;17937;51.508;7.534;2022-11-14T14:49:06;17.42;;;9.48;;
31310;SDS011;17937;51.508;7.534;2022-11-14T14:51:33;13.32;;;8.30;;
31310;SDS011;17937;51.508;7.534;2022-11-14T14:54:01;14.55;;;8.25;;
31310;SDS011;17937;51.508;7.534;2022-11-14T14:56:27;18.20;;;9.30;;
31310;SDS011;17937;51.508;7.534;2022-11-14T14:58:53;14.80;;;9.23;;
31310;SDS011;17937;51.508;7.534;2022-11-14T15:01:24;16.35;;;8.52;;
31310;SDS011;17937;51.508;7.534;2022-11-14T15:03:57;16.63;;;8.70;;
31310;SDS011;17937;51.508;7.534;2022-11-14T15:06:28;17.45;;;9.60;;
31310;SDS011;17937;51.508;7.534;2022-11-14T15:08:56;14.73;;;9.15;;
31310;SDS011;17937;51.508;7.534;2022-11-14T15:11:41;16.75;;;9.23;;
31310;SDS011;17937;51.508;7.534;2022-11-14T15:14:13;17.35;;;9.23;;
31310;SDS011;17937;51.508;7.534;2022-11-14T15:16:42;19.45;;;9.32;;
31310;SDS011;17937;51.508;7.534;2022-11-14T15:19:11;13.75;;;9.15;;
31310;SDS011;17937;51.508;7.534;2022-11-14T15:21:39;15.85;;;9.18;;
31310;SDS011;17937;51.508;7.534;2022-11-14T15:26:39;16.58;;;8.88;;
31310;SDS011;17937;51.508;7.534;2022-11-14T15:32:04;12.57;;;8.82;;
31310;SDS011;17937;51.508;7.534;2022-11-14T15:34:37;16.40;;;8.90;;
31310;SDS011;17937;51.508;7.534;2022-11-14T15:39:39;13.90;;;9.25;;
31310;SDS011;17937;51.508;7.534;2022-11-14T15:44:48;15.07;;;9.07;;
31310;SDS011;17937;51.508;7.534;2022-11-14T15:50:01;14.82;;;8.65;;
31310;SDS011;17937;51.508;7.534;2022-11-14T15:52:37;17.48;;;10.25;;
31310;SDS011;17937;51.508;7.534;2022-11-14T15:55:21;15.98;;;9.70;;
31310;SDS011;17937;51.508;7.534;2022-11-14T15:57:47;15.90;;;9.45;;
31310;SDS011;17937;51.508;7.534;2022-11-14T16:00:14;15.07;;;9.80;;
31310;SDS011;17937;51.508;7.534;2022-11-14T16:02:42;15.25;;;9.55;;
31310;SDS011;17937;51.508;7.534;2022-11-14T16:05:16;17.25;;;9.50;;
31310;SDS011;17937;51.508;7.534;2022-11-14T16:07:44;18.73;;;10.35;;
31310;SDS011;17937;51.508;7.534;2022-11-14T16:10:14;14.95;;;9.50;;
31310;SDS011;17937;51.508;7.534;2022-11-14T16:12:41;17.05;;;9.77;;
31310;SDS011;17937;51.508;7.534;2022-11-14T16:15:07;17.15;;;9.88;;
31310;SDS011;17937;51.508;7.534;2022-11-14T16:17:34;15.70;;;9.02;;
31310;SDS011;17937;51.508;7.534;2022-11-14T16:20:04;15.98;;;9.60;;
31310;SDS011;17937;51.508;7.534;2022-11-14T16:22:30;15.73;;;10.00;;
31310;SDS011;17937;51.508;7.534;2022-11-14T16:24:58;15.02;;;10.18;;
31310;SDS011;17937;51.508;7.534;2022-11-14T16:27:24;17.88;;;10.05;;
31310;SDS011;17937;51.508;7.534;2022-11-14T16:29:50;18.88;;;10.60;;
31310;SDS011;17937;51.508;7.534;2022-11-14T16:32:16;17.73;;;9.82;;
31310;SDS011;17937;51.508;7.534;2022-11-14T16:34:41;19.02;;;10.82;;
31310;SDS011;17937;51.508;7.534;2022-11-14T16:37:07;15.38;;;9.77;;
31310;SDS011;17937;51.508;7.534;2022-11-14T16:39:37;16.52;;;9.30;;
31310;SDS011;17937;51.508;7.534;2022-11-14T16:42:03;14.80;;;10.07;;
31310;SDS011;17937;51.508;7.534;2022-11-14T16:44:29;16.73;;;10.68;;
31310;SDS011;17937;51.508;7.534;2022-11-14T16:46:55;16.73;;;9.93;;
31310;SDS011;17937;51.508;7.534;2022-11-14T16:49:20;20.15;;;10.55;;